Alerta Airport


Codes: SPAR/ALD
Name: Alerta Airport
City: Fortaleza
Country: Peru
Elevation: 797 ft.

Photos at Alerta Airport


   Photos courtesy of SpottingLog. You can add your own sightings and photos by signing up for a free trial today.



No photos found.

Weather at Alerta Airport


Time (UTC)DescriptionTempratureWindCloud coverageVisibilityPressureHumidity
16-Jun-2024 00:00Broken Clouds25°C2 mph, N68%10000m1010hPa72%
16-Jun-2024 03:00Broken Clouds26°C2 mph, N79%10000m1011hPa70%
16-Jun-2024 06:00Overcast Clouds25°C2 mph, NW87%10000m1011hPa72%
16-Jun-2024 09:00Overcast Clouds25°C2 mph, SW100%10000m1011hPa74%
16-Jun-2024 12:00Broken Clouds24°C0 mph, E74%10000m1013hPa81%
16-Jun-2024 15:00Broken Clouds28°C2 mph, N55%10000m1014hPa64%
16-Jun-2024 18:00Scattered Clouds34°C2 mph, N50%10000m1010hPa39%
16-Jun-2024 21:00Broken Clouds29°C2 mph, SW64%10000m1009hPa58%
17-Jun-2024 00:00Light Rain26°C0 mph, SE82%10000m1011hPa77%
17-Jun-2024 03:00Light Rain23°C2 mph, S31%10000m1012hPa87%
17-Jun-2024 06:00Light Rain22°C2 mph, NW36%10000m1011hPa92%
17-Jun-2024 09:00Light Rain21°C2 mph, W15%10000m1010hPa96%
17-Jun-2024 12:00Light Rain22°C2 mph, W26%10000m1012hPa95%
17-Jun-2024 15:00Broken Clouds30°C4 mph, W78%10000m1012hPa57%
17-Jun-2024 18:00Broken Clouds32°C4 mph, NW63%10000m1008hPa43%
17-Jun-2024 21:00Overcast Clouds28°C0 mph, NW99%10000m1007hPa58%
18-Jun-2024 00:00Overcast Clouds27°C2 mph, W97%10000m1008hPa62%
18-Jun-2024 03:00Broken Clouds24°C2 mph, SW73%10000m1010hPa75%
18-Jun-2024 06:00Broken Clouds22°C0 mph, NW57%10000m1009hPa86%
18-Jun-2024 09:00Scattered Clouds21°C2 mph, NW50%10000m1009hPa90%
18-Jun-2024 12:00Scattered Clouds23°C2 mph, NW37%10000m1010hPa85%
18-Jun-2024 15:00Broken Clouds30°C4 mph, NW72%10000m1010hPa48%
18-Jun-2024 18:00Broken Clouds34°C4 mph, W63%10000m1006hPa36%
18-Jun-2024 21:00Broken Clouds28°C4 mph, SW72%10000m1006hPa62%
19-Jun-2024 00:00Broken Clouds22°C2 mph, SW73%10000m1007hPa89%
19-Jun-2024 03:00Broken Clouds23°C2 mph, W71%10000m1009hPa83%
19-Jun-2024 06:00Broken Clouds21°C2 mph, W53%10000m1009hPa90%
19-Jun-2024 09:00Scattered Clouds21°C2 mph, NW39%10000m1009hPa93%
19-Jun-2024 12:00Few Clouds22°C2 mph, W23%10000m1011hPa82%
19-Jun-2024 15:00Few Clouds31°C4 mph, NW23%10000m1012hPa47%
19-Jun-2024 18:00Scattered Clouds33°C4 mph, NW32%10000m1008hPa38%
19-Jun-2024 21:00Overcast Clouds30°C0 mph, NW94%10000m1006hPa51%
20-Jun-2024 00:00Overcast Clouds24°C2 mph, S96%10000m1009hPa76%
20-Jun-2024 03:00Overcast Clouds23°C2 mph, SW99%10000m1010hPa81%
20-Jun-2024 06:00Overcast Clouds21°C0 mph, NW100%10000m1010hPa87%
20-Jun-2024 09:00Overcast Clouds21°C0 mph, E100%10000m1010hPa90%
20-Jun-2024 12:00Light Rain22°C0 mph, S86%10000m1012hPa89%
20-Jun-2024 15:00Broken Clouds31°C0 mph, E65%10000m1013hPa49%
20-Jun-2024 18:00Broken Clouds35°C0 mph, NW80%10000m1010hPa35%
20-Jun-2024 21:00Overcast Clouds29°C2 mph, SW100%10000m1008hPa57%